sensor_id;sensor_type;location;lat;lon;timestamp;pressure;altitude;pressure_sealevel;temperature;humidity
25080;BME280;13071;48.868;9.996;2023-05-11T00:01:47;96287.03;;;11.15;100.00
25080;BME280;13071;48.868;9.996;2023-05-11T00:04:13;96290.50;;;11.15;100.00
25080;BME280;13071;48.868;9.996;2023-05-11T00:06:40;96283.84;;;11.13;100.00
25080;BME280;13071;48.868;9.996;2023-05-11T00:09:07;96282.03;;;11.17;99.98
25080;BME280;13071;48.868;9.996;2023-05-11T00:11:33;96274.94;;;11.12;100.00
25080;BME280;13071;48.868;9.996;2023-05-11T00:14:02;96279.09;;;11.22;100.00
25080;BME280;13071;48.868;9.996;2023-05-11T00:16:29;96279.56;;;11.24;100.00
25080;BME280;13071;48.868;9.996;2023-05-11T00:18:55;96275.25;;;11.23;100.00
25080;BME280;13071;48.868;9.996;2023-05-11T00:21:22;96279.22;;;11.13;100.00
25080;BME280;13071;48.868;9.996;2023-05-11T00:23:48;96277.66;;;11.12;100.00
25080;BME280;13071;48.868;9.996;2023-05-11T00:26:15;96275.03;;;11.28;100.00
25080;BME280;13071;48.868;9.996;2023-05-11T00:28:42;96285.06;;;11.15;100.00
25080;BME280;13071;48.868;9.996;2023-05-11T00:31:10;96281.84;;;11.10;100.00
25080;BME280;13071;48.868;9.996;2023-05-11T00:33:37;96274.47;;;11.10;100.00
25080;BME280;13071;48.868;9.996;2023-05-11T00:36:04;96274.94;;;11.12;100.00
25080;BME280;13071;48.868;9.996;2023-05-11T00:38:32;96269.41;;;11.09;100.00
25080;BME280;13071;48.868;9.996;2023-05-11T00:41:00;96273.34;;;11.11;100.00
25080;BME280;13071;48.868;9.996;2023-05-11T00:43:27;96270.66;;;11.11;100.00
25080;BME280;13071;48.868;9.996;2023-05-11T00:45:54;96268.72;;;11.12;100.00
25080;BME280;13071;48.868;9.996;2023-05-11T00:48:22;96270.66;;;11.11;100.00
25080;BME280;13071;48.868;9.996;2023-05-11T00:50:49;96268.28;;;11.10;100.00
25080;BME280;13071;48.868;9.996;2023-05-11T00:53:15;96270.66;;;11.11;100.00
25080;BME280;13071;48.868;9.996;2023-05-11T00:55:42;96268.50;;;11.17;100.00
25080;BME280;13071;48.868;9.996;2023-05-11T00:58:08;96262.19;;;11.13;100.00
25080;BME280;13071;48.868;9.996;2023-05-11T01:00:35;96271.66;;;11.07;100.00
25080;BME280;13071;48.868;9.996;2023-05-11T01:03:02;96264.78;;;11.09;100.00
25080;BME280;13071;48.868;9.996;2023-05-11T01:05:35;96259.94;;;11.15;100.00
25080;BME280;13071;48.868;9.996;2023-05-11T01:08:11;96272.22;;;11.24;100.00
25080;BME280;13071;48.868;9.996;2023-05-11T01:10:41;96266.03;;;11.12;100.00
25080;BME280;13071;48.868;9.996;2023-05-11T01:13:17;96270.06;;;11.18;100.00
25080;BME280;13071;48.868;9.996;2023-05-11T01:15:49;96266.72;;;11.09;100.00
25080;BME280;13071;48.868;9.996;2023-05-11T01:18:19;96270.78;;;11.15;100.00
25080;BME280;13071;48.868;9.996;2023-05-11T01:20:54;96266.06;;;11.00;100.00
25080;BME280;13071;48.868;9.996;2023-05-11T01:23:48;96264.78;;;11.09;100.00
25080;BME280;13071;48.868;9.996;2023-05-11T01:26:33;96266.16;;;11.03;100.00
25080;BME280;13071;48.868;9.996;2023-05-11T01:29:40;96266.59;;;11.05;100.00
25080;BME280;13071;48.868;9.996;2023-05-11T01:32:14;96276.53;;;11.01;100.00
25080;BME280;13071;48.868;9.996;2023-05-11T01:34:43;96265.34;;;11.03;100.00
25080;BME280;13071;48.868;9.996;2023-05-11T01:37:14;96259.16;;;11.02;100.00
25080;BME280;13071;48.868;9.996;2023-05-11T01:39:47;96261.53;;;11.04;100.00
25080;BME280;13071;48.868;9.996;2023-05-11T01:42:17;96258.59;;;10.97;100.00
25080;BME280;13071;48.868;9.996;2023-05-11T01:44:49;96261.53;;;11.04;100.00
25080;BME280;13071;48.868;9.996;2023-05-11T01:47:19;96261.75;;;10.99;100.00
25080;BME280;13071;48.868;9.996;2023-05-11T01:49:48;96261.16;;;11.05;100.00
25080;BME280;13071;48.868;9.996;2023-05-11T01:52:17;96261.41;;;11.00;100.00
25080;BME280;13071;48.868;9.996;2023-05-11T01:54:47;96260.63;;;11.00;100.00
25080;BME280;13071;48.868;9.996;2023-05-11T01:57:15;96265.03;;;11.04;100.00
25080;BME280;13071;48.868;9.996;2023-05-11T01:59:43;96262.19;;;11.01;100.00
25080;BME280;13071;48.868;9.996;2023-05-11T02:02:11;96276.88;;;11.00;100.00
25080;BME280;13071;48.868;9.996;2023-05-11T02:04:40;96266.72;;;10.97;100.00
25080;BME280;13071;48.868;9.996;2023-05-11T02:07:10;96265.13;;;10.96;100.00
25080;BME280;13071;48.868;9.996;2023-05-11T02:09:38;96267.50;;;10.97;100.00
25080;BME280;13071;48.868;9.996;2023-05-11T02:12:06;96265.25;;;10.99;100.00
25080;BME280;13071;48.868;9.996;2023-05-11T02:14:34;96264.69;;;10.94;100.00
25080;BME280;13071;48.868;9.996;2023-05-11T02:17:03;96265.69;;;11.01;100.00
25080;BME280;13071;48.868;9.996;2023-05-11T02:19:33;96266.06;;;11.00;100.00
25080;BME280;13071;48.868;9.996;2023-05-11T02:22:02;96264.25;;;11.04;100.00
25080;BME280;13071;48.868;9.996;2023-05-11T02:24:30;96265.25;;;10.99;100.00
25080;BME280;13071;48.868;9.996;2023-05-11T02:26:57;96258.16;;;10.95;100.00
25080;BME280;13071;48.868;9.996;2023-05-11T02:29:25;96261.66;;;10.95;100.00
25080;BME280;13071;48.868;9.996;2023-05-11T02:31:55;96264.59;;;10.90;100.00
25080;BME280;13071;48.868;9.996;2023-05-11T02:34:27;96265.38;;;10.91;100.00
25080;BME280;13071;48.868;9.996;2023-05-11T02:37:01;96262.88;;;10.98;100.00
25080;BME280;13071;48.868;9.996;2023-05-11T02:39:34;96266.16;;;11.03;100.00
25080;BME280;13071;48.868;9.996;2023-05-11T02:42:05;96268.41;;;11.01;100.00
25080;BME280;13071;48.868;9.996;2023-05-11T02:44:36;96268.75;;;11.00;100.00
25080;BME280;13071;48.868;9.996;2023-05-11T02:47:05;96264.81;;;10.97;100.00
25080;BME280;13071;48.868;9.996;2023-05-11T02:49:35;96256.13;;;10.92;100.00
25080;BME280;13071;48.868;9.996;2023-05-11T02:52:05;96261.41;;;11.00;100.00
25080;BME280;13071;48.868;9.996;2023-05-11T02:54:34;96257.94;;;11.00;100.00
25080;BME280;13071;48.868;9.996;2023-05-11T02:57:02;96262.31;;;11.04;100.00
25080;BME280;13071;48.868;9.996;2023-05-11T02:59:29;96267.75;;;11.04;100.00
25080;BME280;13071;48.868;9.996;2023-05-11T03:01:56;96262.88;;;10.98;100.00
25080;BME280;13071;48.868;9.996;2023-05-11T03:04:23;96265.94;;;10.96;100.00
25080;BME280;13071;48.868;9.996;2023-05-11T03:06:50;96258.50;;;10.93;100.00
25080;BME280;13071;48.868;9.996;2023-05-11T03:09:18;96250.03;;;10.95;100.00
25080;BME280;13071;48.868;9.996;2023-05-11T03:11:45;96253.28;;;11.00;100.00
25080;BME280;13071;48.868;9.996;2023-05-11T03:14:13;96250.25;;;11.02;100.00
25080;BME280;13071;48.868;9.996;2023-05-11T03:16:40;96249.13;;;11.03;100.00
25080;BME280;13071;48.868;9.996;2023-05-11T03:19:07;96245.53;;;10.99;100.00
25080;BME280;13071;48.868;9.996;2023-05-11T03:21:36;96257.13;;;10.99;100.00
25080;BME280;13071;48.868;9.996;2023-05-11T03:24:04;96259.38;;;10.97;100.00
25080;BME280;13071;48.868;9.996;2023-05-11T03:26:33;96267.50;;;10.97;100.00
25080;BME280;13071;48.868;9.996;2023-05-11T03:29:01;96251.03;;;11.02;100.00
25080;BME280;13071;48.868;9.996;2023-05-11T03:31:28;96261.06;;;11.02;100.00
25080;BME280;13071;48.868;9.996;2023-05-11T03:33:55;96252.50;;;11.00;100.00
25080;BME280;13071;48.868;9.996;2023-05-11T03:36:23;96253.63;;;10.99;100.00
25080;BME280;13071;48.868;9.996;2023-05-11T03:38:52;96247.88;;;11.00;100.00
25080;BME280;13071;48.868;9.996;2023-05-11T03:41:21;96248.66;;;11.01;100.00
25080;BME280;13071;48.868;9.996;2023-05-11T03:43:52;96247.28;;;11.07;100.00
25080;BME280;13071;48.868;9.996;2023-05-11T03:46:21;96243.25;;;11.01;100.00
25080;BME280;13071;48.868;9.996;2023-05-11T03:48:48;96248.41;;;11.06;100.00
25080;BME280;13071;48.868;9.996;2023-05-11T03:51:15;96243.78;;;11.06;100.00
25080;BME280;13071;48.868;9.996;2023-05-11T03:53:42;96255.53;;;11.10;100.00
25080;BME280;13071;48.868;9.996;2023-05-11T03:56:09;96245.94;;;11.01;100.00
25080;BME280;13071;48.868;9.996;2023-05-11T03:58:37;96243.59;;;10.99;100.00
25080;BME280;13071;48.868;9.996;2023-05-11T04:01:07;96244.72;;;10.98;100.00
25080;BME280;13071;48.868;9.996;2023-05-11T04:03:34;96247.75;;;10.97;100.00
25080;BME280;13071;48.868;9.996;2023-05-11T04:06:01;96249.56;;;11.05;100.00
25080;BME280;13071;48.868;9.996;2023-05-11T04:08:28;96241.69;;;11.00;100.00
25080;BME280;13071;48.868;9.996;2023-05-11T04:10:54;96246.41;;;11.03;100.00
25080;BME280;13071;48.868;9.996;2023-05-11T04:13:21;96243.84;;;10.94;100.00
25080;BME280;13071;48.868;9.996;2023-05-11T04:15:48;96233.66;;;10.91;100.00
25080;BME280;13071;48.868;9.996;2023-05-11T04:18:15;96236.28;;;10.88;100.00
25080;BME280;13071;48.868;9.996;2023-05-11T04:20:42;96245.19;;;10.88;100.00
25080;BME280;13071;48.868;9.996;2023-05-11T04:23:09;96241.69;;;10.88;100.00
25080;BME280;13071;48.868;9.996;2023-05-11T04:25:35;96243.94;;;10.86;100.00
25080;BME280;13071;48.868;9.996;2023-05-11T04:28:02;96247.09;;;10.88;100.00
25080;BME280;13071;48.868;9.996;2023-05-11T04:30:28;96243.72;;;10.91;100.00
25080;BME280;13071;48.868;9.996;2023-05-11T04:32:55;96248.00;;;10.92;100.00
25080;BME280;13071;48.868;9.996;2023-05-11T04:35:23;96248.00;;;10.92;100.00
25080;BME280;13071;48.868;9.996;2023-05-11T04:37:50;96253.19;;;10.97;100.00
25080;BME280;13071;48.868;9.996;2023-05-11T04:40:16;96251.72;;;10.99;100.00
25080;BME280;13071;48.868;9.996;2023-05-11T04:42:43;96254.88;;;11.01;100.00
25080;BME280;13071;48.868;9.996;2023-05-11T04:45:10;96258.50;;;10.93;100.00
25080;BME280;13071;48.868;9.996;2023-05-11T04:47:37;96254.31;;;10.96;100.00
25080;BME280;13071;48.868;9.996;2023-05-11T04:50:04;96259.72;;;10.96;100.00
25080;BME280;13071;48.868;9.996;2023-05-11T04:52:32;96252.84;;;10.98;100.00
25080;BME280;13071;48.868;9.996;2023-05-11T04:54:59;96257.13;;;10.99;100.00
25080;BME280;13071;48.868;9.996;2023-05-11T04:57:26;96260.97;;;10.98;100.00
25080;BME280;13071;48.868;9.996;2023-05-11T04:59:52;96260.75;;;11.03;100.00
25080;BME280;13071;48.868;9.996;2023-05-11T05:02:19;96263.22;;;11.08;100.00
25080;BME280;13071;48.868;9.996;2023-05-11T05:04:45;96263.34;;;11.00;100.00
25080;BME280;13071;48.868;9.996;2023-05-11T05:07:12;96260.63;;;11.00;100.00
25080;BME280;13071;48.868;9.996;2023-05-11T05:09:40;96261.63;;;11.07;100.00
25080;BME280;13071;48.868;9.996;2023-05-11T05:12:06;96271.34;;;11.08;100.00
25080;BME280;13071;48.868;9.996;2023-05-11T05:14:33;96264.25;;;11.04;100.00
25080;BME280;13071;48.868;9.996;2023-05-11T05:16:59;96267.75;;;11.04;100.00
25080;BME280;13071;48.868;9.996;2023-05-11T05:19:26;96265.47;;;11.06;100.00
25080;BME280;13071;48.868;9.996;2023-05-11T05:21:53;96266.94;;;11.04;100.00
25080;BME280;13071;48.868;9.996;2023-05-11T05:24:19;96266.16;;;11.03;100.00
25080;BME280;13071;48.868;9.996;2023-05-11T05:26:47;96264.00;;;11.09;100.00
25080;BME280;13071;48.868;9.996;2023-05-11T05:29:14;96263.31;;;11.12;100.00
25080;BME280;13071;48.868;9.996;2023-05-11T05:31:40;96268.41;;;11.13;100.00
25080;BME280;13071;48.868;9.996;2023-05-11T05:34:07;96269.53;;;11.12;100.00
25080;BME280;13071;48.868;9.996;2023-05-11T05:36:33;96269.97;;;11.14;100.00
25080;BME280;13071;48.868;9.996;2023-05-11T05:39:00;96271.00;;;11.10;100.00
25080;BME280;13071;48.868;9.996;2023-05-11T05:41:28;96270.78;;;11.15;100.00
25080;BME280;13071;48.868;9.996;2023-05-11T05:43:56;96273.03;;;11.13;100.00
25080;BME280;13071;48.868;9.996;2023-05-11T05:46:22;96270.41;;;11.16;100.00
25080;BME280;13071;48.868;9.996;2023-05-11T05:48:49;96274.47;;;11.22;100.00
25080;BME280;13071;48.868;9.996;2023-05-11T05:51:15;96279.09;;;11.22;100.00
25080;BME280;13071;48.868;9.996;2023-05-11T05:53:42;96279.09;;;11.22;100.00
25080;BME280;13071;48.868;9.996;2023-05-11T05:56:08;96274.31;;;11.31;100.00
25080;BME280;13071;48.868;9.996;2023-05-11T05:58:35;96276.63;;;11.17;100.00
25080;BME280;13071;48.868;9.996;2023-05-11T06:01:03;96273.47;;;11.15;100.00
25080;BME280;13071;48.868;9.996;2023-05-11T06:03:30;96277.88;;;11.19;100.00
25080;BME280;13071;48.868;9.996;2023-05-11T06:05:56;96278.06;;;11.26;100.00
25080;BME280;13071;48.868;9.996;2023-05-11T06:08:23;96284.28;;;11.27;100.00
25080;BME280;13071;48.868;9.996;2023-05-11T06:10:49;96284.97;;;11.24;100.00
25080;BME280;13071;48.868;9.996;2023-05-11T06:13:16;96281.47;;;11.23;100.00
25080;BME280;13071;48.868;9.996;2023-05-11T06:15:43;96282.91;;;11.21;100.00
25080;BME280;13071;48.868;9.996;2023-05-11T06:18:10;96284.59;;;11.25;100.00
25080;BME280;13071;48.868;9.996;2023-05-11T06:20:37;96287.06;;;11.31;100.00
25080;BME280;13071;48.868;9.996;2023-05-11T06:23:04;96285.38;;;11.38;100.00
25080;BME280;13071;48.868;9.996;2023-05-11T06:25:32;96286.28;;;11.42;100.00
25080;BME280;13071;48.868;9.996;2023-05-11T06:27:59;96285.78;;;11.52;100.00
25080;BME280;13071;48.868;9.996;2023-05-11T06:30:26;96285.88;;;11.56;100.00
25080;BME280;13071;48.868;9.996;2023-05-11T06:32:52;96282.75;;;11.54;100.00
25080;BME280;13071;48.868;9.996;2023-05-11T06:35:20;96280.69;;;11.51;100.00
25080;BME280;13071;48.868;9.996;2023-05-11T06:37:47;96285.25;;;11.47;100.00
25080;BME280;13071;48.868;9.996;2023-05-11T06:40:14;96291.06;;;11.61;100.00
25080;BME280;13071;48.868;9.996;2023-05-11T06:42:41;96288.09;;;11.66;100.00
25080;BME280;13071;48.868;9.996;2023-05-11T06:45:08;96282.28;;;11.52;100.00
25080;BME280;13071;48.868;9.996;2023-05-11T06:47:35;96275.66;;;11.49;100.00
25080;BME280;13071;48.868;9.996;2023-05-11T06:50:02;96282.84;;;11.57;100.00
25080;BME280;13071;48.868;9.996;2023-05-11T06:52:30;96276.97;;;11.55;100.00
25080;BME280;13071;48.868;9.996;2023-05-11T06:54:57;96280.03;;;11.54;100.00
25080;BME280;13071;48.868;9.996;2023-05-11T06:57:23;96283.47;;;11.66;100.00
25080;BME280;13071;48.868;9.996;2023-05-11T06:59:50;96279.72;;;11.71;100.00
25080;BME280;13071;48.868;9.996;2023-05-11T07:02:16;96270.69;;;11.79;99.19
25080;BME280;13071;48.868;9.996;2023-05-11T07:04:43;96279.03;;;11.86;98.80
25080;BME280;13071;48.868;9.996;2023-05-11T07:07:09;96283.56;;;11.70;98.73
25080;BME280;13071;48.868;9.996;2023-05-11T07:09:37;96276.47;;;11.65;98.90
25080;BME280;13071;48.868;9.996;2023-05-11T07:12:04;96280.53;;;11.72;99.32
25080;BME280;13071;48.868;9.996;2023-05-11T07:14:31;96278.16;;;11.70;98.63
25080;BME280;13071;48.868;9.996;2023-05-11T07:16:57;96285.16;;;11.83;97.38
25080;BME280;13071;48.868;9.996;2023-05-11T07:19:24;96278.94;;;11.70;96.40
25080;BME280;13071;48.868;9.996;2023-05-11T07:21:50;96283.72;;;11.74;98.18
25080;BME280;13071;48.868;9.996;2023-05-11T07:24:17;96283.22;;;11.72;98.82
25080;BME280;13071;48.868;9.996;2023-05-11T07:26:45;96288.53;;;11.80;99.70
25080;BME280;13071;48.868;9.996;2023-05-11T07:29:13;96288.56;;;11.96;99.33
25080;BME280;13071;48.868;9.996;2023-05-11T07:31:39;96290.94;;;11.97;96.48
25080;BME280;13071;48.868;9.996;2023-05-11T07:34:07;96288.81;;;11.91;97.11
25080;BME280;13071;48.868;9.996;2023-05-11T07:36:34;96283.78;;;12.05;97.28
25080;BME280;13071;48.868;9.996;2023-05-11T07:39:00;96283.09;;;12.24;97.91
25080;BME280;13071;48.868;9.996;2023-05-11T07:41:28;96280.06;;;12.25;96.09
25080;BME280;13071;48.868;9.996;2023-05-11T07:43:58;96291.53;;;12.34;96.47
25080;BME280;13071;48.868;9.996;2023-05-11T07:46:25;96289.19;;;12.33;95.62
25080;BME280;13071;48.868;9.996;2023-05-11T07:48:51;96289.78;;;12.26;95.26
25080;BME280;13071;48.868;9.996;2023-05-11T07:51:18;96287.16;;;12.30;96.23
25080;BME280;13071;48.868;9.996;2023-05-11T07:53:45;96288.47;;;12.36;94.58
25080;BME280;13071;48.868;9.996;2023-05-11T07:56:11;96283.50;;;12.38;95.42
25080;BME280;13071;48.868;9.996;2023-05-11T07:58:38;96284.38;;;12.42;96.16
25080;BME280;13071;48.868;9.996;2023-05-11T08:01:06;96285.69;;;12.48;96.07
25080;BME280;13071;48.868;9.996;2023-05-11T08:03:32;96285.50;;;12.41;96.91
25080;BME280;13071;48.868;9.996;2023-05-11T08:05:59;96288.00;;;12.34;97.99
25080;BME280;13071;48.868;9.996;2023-05-11T08:08:25;96281.53;;;12.54;96.17
25080;BME280;13071;48.868;9.996;2023-05-11T08:10:52;96284.19;;;12.50;94.20
25080;BME280;13071;48.868;9.996;2023-05-11T08:13:19;96283.13;;;12.55;94.97
25080;BME280;13071;48.868;9.996;2023-05-11T08:15:46;96279.53;;;12.51;93.71
25080;BME280;13071;48.868;9.996;2023-05-11T08:18:14;96281.47;;;12.50;94.37
25080;BME280;13071;48.868;9.996;2023-05-11T08:20:41;96280.06;;;12.72;95.04
25080;BME280;13071;48.868;9.996;2023-05-11T08:23:07;96283.56;;;12.73;96.49
25080;BME280;13071;48.868;9.996;2023-05-11T08:25:35;96275.84;;;12.75;96.54
25080;BME280;13071;48.868;9.996;2023-05-11T08:28:01;96280.81;;;12.88;92.42
25080;BME280;13071;48.868;9.996;2023-05-11T08:30:28;96281.44;;;12.03;96.55
25080;BME280;13071;48.868;9.996;2023-05-11T08:32:54;96280.34;;;12.51;92.14
25080;BME280;13071;48.868;9.996;2023-05-11T08:35:23;96281.75;;;12.61;91.99
25080;BME280;13071;48.868;9.996;2023-05-11T08:37:49;96285.59;;;12.76;92.97
25080;BME280;13071;48.868;9.996;2023-05-11T08:40:16;96289.69;;;12.85;92.37
25080;BME280;13071;48.868;9.996;2023-05-11T08:42:45;96285.19;;;12.93;92.71
25080;BME280;13071;48.868;9.996;2023-05-11T08:45:15;96291.00;;;12.91;91.22
25080;BME280;13071;48.868;9.996;2023-05-11T08:47:42;96292.59;;;12.45;93.46
25080;BME280;13071;48.868;9.996;2023-05-11T08:50:10;96279.97;;;11.78;97.30
25080;BME280;13071;48.868;9.996;2023-05-11T08:52:39;96291.63;;;12.53;92.81
25080;BME280;13071;48.868;9.996;2023-05-11T08:55:07;96289.44;;;12.28;91.96
25080;BME280;13071;48.868;9.996;2023-05-11T08:57:34;96294.06;;;12.27;97.19
25080;BME280;13071;48.868;9.996;2023-05-11T09:00:02;96277.41;;;12.13;92.44
25080;BME280;13071;48.868;9.996;2023-05-11T09:02:29;96288.31;;;12.01;94.77
25080;BME280;13071;48.868;9.996;2023-05-11T09:04:57;96294.63;;;12.05;93.52
25080;BME280;13071;48.868;9.996;2023-05-11T09:07:26;96282.81;;;11.97;96.86
25080;BME280;13071;48.868;9.996;2023-05-11T09:09:55;96281.72;;;11.86;96.93
25080;BME280;13071;48.868;9.996;2023-05-11T09:12:22;96282.09;;;12.00;97.15
25080;BME280;13071;48.868;9.996;2023-05-11T09:14:50;96288.03;;;12.18;94.96
25080;BME280;13071;48.868;9.996;2023-05-11T09:17:17;96283.06;;;11.92;93.90
25080;BME280;13071;48.868;9.996;2023-05-11T09:19:56;96284.69;;;12.25;95.21
25080;BME280;13071;48.868;9.996;2023-05-11T09:22:24;96283.91;;;12.40;94.07
25080;BME280;13071;48.868;9.996;2023-05-11T09:24:51;96282.25;;;12.51;93.65
25080;BME280;13071;48.868;9.996;2023-05-11T09:27:22;96283.31;;;11.87;94.43
25080;BME280;13071;48.868;9.996;2023-05-11T09:29:51;96288.38;;;12.17;95.47
25080;BME280;13071;48.868;9.996;2023-05-11T09:32:18;96285.53;;;11.97;100.00
25080;BME280;13071;48.868;9.996;2023-05-11T09:34:44;96280.22;;;11.61;91.21
25080;BME280;13071;48.868;9.996;2023-05-11T09:37:15;96280.88;;;11.30;94.16
25080;BME280;13071;48.868;9.996;2023-05-11T09:39:42;96281.00;;;11.34;94.29
25080;BME280;13071;48.868;9.996;2023-05-11T09:42:13;96279.16;;;11.38;94.80
25080;BME280;13071;48.868;9.996;2023-05-11T09:44:42;96283.00;;;11.49;95.08
25080;BME280;13071;48.868;9.996;2023-05-11T09:47:10;96276.59;;;11.69;98.34
25080;BME280;13071;48.868;9.996;2023-05-11T09:49:37;96279.88;;;11.62;95.30
25080;BME280;13071;48.868;9.996;2023-05-11T09:52:04;96285.16;;;11.99;94.53
25080;BME280;13071;48.868;9.996;2023-05-11T09:54:39;96281.63;;;11.83;97.50
25080;BME280;13071;48.868;9.996;2023-05-11T09:57:06;96280.97;;;12.01;95.85
25080;BME280;13071;48.868;9.996;2023-05-11T09:59:37;96287.69;;;11.92;94.32
25080;BME280;13071;48.868;9.996;2023-05-11T10:02:20;96280.50;;;11.84;96.85
25080;BME280;13071;48.868;9.996;2023-05-11T10:04:47;96287.03;;;12.10;93.67
25080;BME280;13071;48.868;9.996;2023-05-11T10:07:24;96287.06;;;11.70;93.53
25080;BME280;13071;48.868;9.996;2023-05-11T10:09:52;96279.53;;;11.64;95.89
25080;BME280;13071;48.868;9.996;2023-05-11T10:12:21;96276.00;;;12.03;97.45
25080;BME280;13071;48.868;9.996;2023-05-11T10:14:52;96276.78;;;12.04;95.67
25080;BME280;13071;48.868;9.996;2023-05-11T10:17:20;96274.72;;;12.29;94.82
25080;BME280;13071;48.868;9.996;2023-05-11T10:19:48;96274.22;;;11.95;96.85
25080;BME280;13071;48.868;9.996;2023-05-11T10:22:15;96275.22;;;11.75;93.76
25080;BME280;13071;48.868;9.996;2023-05-11T10:24:42;96274.88;;;11.77;91.00
25080;BME280;13071;48.868;9.996;2023-05-11T10:27:10;96276.63;;;12.44;92.38
25080;BME280;13071;48.868;9.996;2023-05-11T10:29:36;96266.69;;;12.32;96.25
25080;BME280;13071;48.868;9.996;2023-05-11T10:32:04;96268.84;;;12.27;95.24
25080;BME280;13071;48.868;9.996;2023-05-11T10:34:33;96274.03;;;12.47;95.71
25080;BME280;13071;48.868;9.996;2023-05-11T10:37:00;96261.78;;;12.22;94.52
25080;BME280;13071;48.868;9.996;2023-05-11T10:39:27;96263.69;;;12.22;95.46
25080;BME280;13071;48.868;9.996;2023-05-11T10:42:01;96261.06;;;12.25;98.04
25080;BME280;13071;48.868;9.996;2023-05-11T10:45:06;96262.06;;;12.05;94.30
25080;BME280;13071;48.868;9.996;2023-05-11T10:47:51;96262.91;;;12.37;94.60
25080;BME280;13071;48.868;9.996;2023-05-11T10:50:41;96263.97;;;12.48;95.99
25080;BME280;13071;48.868;9.996;2023-05-11T10:53:24;96266.75;;;12.36;93.35
25080;BME280;13071;48.868;9.996;2023-05-11T10:56:05;96261.00;;;12.37;93.25
25080;BME280;13071;48.868;9.996;2023-05-11T10:58:46;96264.91;;;12.71;91.60
25080;BME280;13071;48.868;9.996;2023-05-11T11:01:30;96262.81;;;12.65;93.02
25080;BME280;13071;48.868;9.996;2023-05-11T11:04:02;96250.16;;;12.88;92.75
25080;BME280;13071;48.868;9.996;2023-05-11T11:06:31;96247.72;;;12.83;91.12
25080;BME280;13071;48.868;9.996;2023-05-11T11:09:00;96250.31;;;13.11;91.63
25080;BME280;13071;48.868;9.996;2023-05-11T11:11:34;96251.19;;;12.99;91.63
25080;BME280;13071;48.868;9.996;2023-05-11T11:14:02;96247.69;;;12.98;92.12
25080;BME280;13071;48.868;9.996;2023-05-11T11:16:31;96256.28;;;13.16;92.80
25080;BME280;13071;48.868;9.996;2023-05-11T11:19:35;96256.16;;;12.46;91.88
25080;BME280;13071;48.868;9.996;2023-05-11T11:22:04;96253.09;;;12.17;93.10
25080;BME280;13071;48.868;9.996;2023-05-11T11:24:49;96252.97;;;11.97;94.85
25080;BME280;13071;48.868;9.996;2023-05-11T11:27:15;96256.66;;;12.05;99.68
25080;BME280;13071;48.868;9.996;2023-05-11T11:30:15;96254.94;;;11.57;100.00
25080;BME280;13071;48.868;9.996;2023-05-11T11:32:42;96255.22;;;11.40;99.51
25080;BME280;13071;48.868;9.996;2023-05-11T11:38:11;96256.25;;;11.75;100.00
25080;BME280;13071;48.868;9.996;2023-05-11T11:40:39;96257.50;;;11.65;99.54
25080;BME280;13071;48.868;9.996;2023-05-11T11:43:13;96254.13;;;11.68;100.00
25080;BME280;13071;48.868;9.996;2023-05-11T11:45:50;96251.06;;;11.98;100.00
25080;BME280;13071;48.868;9.996;2023-05-11T11:48:21;96250.13;;;12.22;99.92
25080;BME280;13071;48.868;9.996;2023-05-11T11:50:49;96253.78;;;12.29;100.00
25080;BME280;13071;48.868;9.996;2023-05-11T11:56:43;96251.59;;;12.03;98.49
25080;BME280;13071;48.868;9.996;2023-05-11T11:59:10;96250.34;;;12.01;98.96
25080;BME280;13071;48.868;9.996;2023-05-11T12:01:40;96255.38;;;12.30;99.43
25080;BME280;13071;48.868;9.996;2023-05-11T12:04:24;96252.41;;;12.35;96.40
25080;BME280;13071;48.868;9.996;2023-05-11T12:06:57;96254.41;;;12.23;95.17
25080;BME280;13071;48.868;9.996;2023-05-11T12:09:24;96248.84;;;11.88;94.21
25080;BME280;13071;48.868;9.996;2023-05-11T12:11:52;96245.03;;;12.20;98.10
25080;BME280;13071;48.868;9.996;2023-05-11T12:14:20;96249.94;;;12.15;97.17
25080;BME280;13071;48.868;9.996;2023-05-11T12:17:07;96249.09;;;11.83;97.24
25080;BME280;13071;48.868;9.996;2023-05-11T12:19:41;96255.31;;;11.83;94.76
25080;BME280;13071;48.868;9.996;2023-05-11T12:22:07;96250.44;;;12.04;96.66
25080;BME280;13071;48.868;9.996;2023-05-11T12:24:35;96245.38;;;12.03;96.50
25080;BME280;13071;48.868;9.996;2023-05-11T12:27:04;96243.00;;;12.01;96.95
25080;BME280;13071;48.868;9.996;2023-05-11T12:29:31;96250.31;;;12.13;96.26
25080;BME280;13071;48.868;9.996;2023-05-11T12:31:58;96248.88;;;12.03;97.24
25080;BME280;13071;48.868;9.996;2023-05-11T12:34:24;96249.94;;;12.30;96.62
25080;BME280;13071;48.868;9.996;2023-05-11T12:36:52;96247.31;;;12.49;96.81
25080;BME280;13071;48.868;9.996;2023-05-11T12:39:20;96243.72;;;12.14;95.64
25080;BME280;13071;48.868;9.996;2023-05-11T12:41:48;96241.00;;;12.14;94.87
25080;BME280;13071;48.868;9.996;2023-05-11T12:44:17;96244.97;;;12.32;97.84
25080;BME280;13071;48.868;9.996;2023-05-11T12:46:44;96241.38;;;12.28;94.05
25080;BME280;13071;48.868;9.996;2023-05-11T12:49:11;96238.81;;;12.20;94.85
25080;BME280;13071;48.868;9.996;2023-05-11T12:51:47;96241.59;;;11.92;97.79
25080;BME280;13071;48.868;9.996;2023-05-11T12:54:31;96233.84;;;12.06;100.00
25080;BME280;13071;48.868;9.996;2023-05-11T12:56:58;96236.97;;;12.24;98.59
25080;BME280;13071;48.868;9.996;2023-05-11T12:59:31;96233.50;;;12.07;97.79
25080;BME280;13071;48.868;9.996;2023-05-11T13:02:09;96237.00;;;12.08;98.70
25080;BME280;13071;48.868;9.996;2023-05-11T13:04:37;96233.41;;;12.20;98.23
25080;BME280;13071;48.868;9.996;2023-05-11T13:07:04;96233.31;;;12.47;96.59
25080;BME280;13071;48.868;9.996;2023-05-11T13:09:31;96228.97;;;12.78;95.14
25080;BME280;13071;48.868;9.996;2023-05-11T13:12:15;96217.84;;;12.83;95.33